Denver, CO

10:12 PM MST on December 21, 2014 (GMT -0700)
Denver | Change Station
CLOSE
Current Station
Airport
Location: Denver,
Elevation: 5430 ft
Nearby Weather Stations

Elev 5430 ft 39.85 °N, 104.66 °W | Updated 19 minutes ago

Rain
Rain Mist
38 °F
Feels Like 28 °F
N
18
Wind Variable Wind from NNW
Gusts 29 mph

Today
High -- | Low -- °F
--% Chance of Precip.
Yesterday
High -- | Low -- °F
Precip. -- in
7:16 AM 4:37 PM
New Moon, 0% visible
Pressure 29.61 in
Visibility 5.0 miles
Clouds Scattered Clouds 2500 ft
Mostly Cloudy 3000 ft
Overcast 4000 ft
Windchill 28 °F
Dew Point 35 °F
Humidity 89%
Rainfall 0.05 in
Snow Depth Not available.
UV 0 out of 12
Pollen .10 out of 12
Air Quality Not available.
Flu Activity Not available.
METAR KDEN 220453Z 34016G25KT 5SM RA BR SCT025 BKN030 OVC040 03/02 A2966 RMK AO2 RAE03B31 SLP025 P0002 T00330017

More Conditions Fewer Conditions

Pressure 29.61 in
Visibility 5.0 miles
Clouds Scattered Clouds 2500 ft
Mostly Cloudy 3000 ft
Overcast 4000 ft
Windchill 28 °F
Dew Point 35 °F
Humidity 89%
Rainfall 0.05 in
Snow Depth Not available.
UV 0 out of 12
Pollen .10 out of 12
Air Quality Not available.
Flu Activity Not available.
METAR KDEN 220453Z 34016G25KT 5SM RA BR SCT025 BKN030 OVC040 03/02 A2966 RMK AO2 RAE03B31 SLP025 P0002 T00330017

More Conditions Fewer Conditions

10-Day Weather Forecast

Almanac

Astronomy

Dec. 21, 2014 Rise Set
Actual Time
Civil Twilight
Nautical Twilight
Astronomical Twilight
Moon
Length of Visible Light
Length of Day
Tomorrow will be .
, % of the Moon is Illuminated

Today's Extremes

State Highs State Lows

Community

WunderPhotos

Upload Photos

1,779,547 photos uploaded!

WunderBlogs® & News

Nearby

Air Quality

  Air Quality AQ Index Pollutant
Not available.

Snow Depth

Station Depth Elevation

Earthquake Activity

City Distance Mag. Time & Date
Minimum magnitude displayed is 2.5.

Coastal Water Temperatures

Place Temperature

Nearby Weather Stations